createdAt,value
2018-06-30T00:02:44.874Z,62.90
2018-06-30T00:06:49.470Z,64.20
2018-06-30T00:10:53.138Z,62.90
2018-06-30T00:15:02.423Z,63.20
2018-06-30T00:19:05.973Z,63.40
2018-06-30T00:23:10.341Z,63.20
2018-06-30T00:27:19.366Z,63.20
2018-06-30T00:31:23.037Z,64.10
2018-06-30T00:35:27.877Z,64.30
2018-06-30T00:39:31.427Z,64.00
2018-06-30T00:43:35.341Z,65.50
2018-06-30T00:47:38.910Z,64.50
2018-06-30T00:51:42.467Z,63.90
2018-06-30T00:55:46.126Z,64.30
2018-06-30T00:59:49.678Z,65.80
2018-06-30T01:03:58.216Z,67.30
2018-06-30T01:08:01.747Z,67.50
2018-06-30T01:12:05.341Z,65.10
2018-06-30T01:16:09.020Z,66.50
2018-06-30T01:20:12.584Z,67.00
2018-06-30T01:24:16.422Z,66.40
2018-06-30T01:28:20.079Z,65.70
2018-06-30T01:32:23.941Z,66.50
2018-06-30T01:36:27.435Z,66.90
2018-06-30T01:40:31.016Z,65.50
2018-06-30T01:44:34.562Z,66.70
2018-06-30T01:48:38.251Z,66.40
2018-06-30T01:52:41.840Z,66.40
2018-06-30T01:56:46.525Z,66.10
2018-06-30T02:00:50.051Z,67.10
2018-06-30T02:04:53.655Z,67.40
2018-06-30T02:08:59.213Z,67.40
2018-06-30T02:13:02.770Z,66.90
2018-06-30T02:17:06.428Z,67.60
2018-06-30T02:21:15.221Z,67.00
2018-06-30T02:25:18.730Z,67.80
2018-06-30T02:29:26.797Z,67.40
2018-06-30T02:33:30.343Z,68.70
2018-06-30T02:37:34.167Z,69.60
2018-06-30T02:41:43.593Z,70.40
2018-06-30T02:45:47.254Z,70.60
2018-06-30T02:50:09.384Z,70.80
2018-06-30T02:54:12.933Z,68.90
2018-06-30T02:58:20.242Z,69.10
2018-06-30T03:02:23.794Z,70.00
2018-06-30T03:06:27.277Z,70.80
2018-06-30T03:10:30.919Z,69.90
2018-06-30T03:14:34.387Z,68.50
2018-06-30T03:18:37.902Z,68.90
2018-06-30T03:22:41.423Z,68.60
2018-06-30T03:26:45.198Z,68.90
2018-06-30T03:30:48.663Z,69.20
2018-06-30T03:34:52.266Z,69.30
2018-06-30T03:38:55.786Z,70.20
2018-06-30T03:42:59.430Z,69.10
2018-06-30T03:47:02.922Z,69.30
2018-06-30T03:51:06.918Z,70.30
2018-06-30T03:55:10.449Z,70.80
2018-06-30T03:59:14.619Z,70.80
2018-06-30T04:07:21.406Z,71.40
2018-06-30T04:11:24.974Z,72.20
2018-06-30T04:15:28.562Z,71.20
2018-06-30T04:19:32.087Z,70.80
2018-06-30T04:23:35.775Z,70.20
2018-06-30T04:27:39.274Z,70.50
2018-06-30T04:31:42.858Z,70.50
2018-06-30T04:35:46.507Z,70.30
2018-06-30T04:39:51.070Z,70.30
2018-06-30T04:43:54.554Z,70.20
2018-06-30T04:52:01.684Z,71.00
2018-06-30T04:56:05.259Z,71.60
2018-06-30T05:00:08.782Z,71.80
2018-06-30T05:04:12.391Z,71.70
2018-06-30T05:08:15.930Z,72.40
2018-06-30T05:12:19.471Z,72.00
2018-06-30T05:16:22.963Z,72.70
2018-06-30T05:20:26.523Z,71.70
2018-06-30T05:28:33.207Z,71.20
2018-06-30T05:32:36.693Z,71.00
2018-06-30T05:36:40.235Z,69.70
2018-06-30T05:44:47.194Z,69.00
2018-06-30T05:48:50.663Z,68.00
2018-06-30T05:52:54.702Z,68.80
2018-06-30T05:56:58.205Z,67.70
2018-06-30T06:01:02.014Z,66.70
2018-06-30T06:05:07.178Z,64.60
2018-06-30T06:09:12.226Z,62.80
2018-06-30T06:13:16.025Z,61.50
2018-06-30T06:17:19.656Z,60.80
2018-06-30T06:21:23.183Z,59.30
2018-06-30T06:25:27.734Z,58.00
2018-06-30T06:29:31.437Z,58.00
2018-06-30T06:33:34.993Z,57.00
2018-06-30T06:37:38.592Z,56.90
2018-06-30T06:41:42.281Z,56.10
2018-06-30T06:45:47.226Z,54.40
2018-06-30T06:49:51.771Z,54.50
2018-06-30T06:53:55.397Z,53.80
2018-06-30T06:57:58.989Z,52.70
2018-06-30T07:06:06.467Z,49.30
2018-06-30T07:10:11.357Z,48.20
2018-06-30T07:14:15.266Z,46.70
2018-06-30T07:18:19.172Z,45.10
2018-06-30T07:22:22.752Z,43.60
2018-06-30T07:26:26.392Z,44.10
2018-06-30T07:30:29.979Z,42.60
2018-06-30T07:34:34.157Z,43.60
2018-06-30T07:38:39.808Z,42.60
2018-06-30T07:42:43.466Z,42.30
2018-06-30T07:46:48.322Z,40.90
2018-06-30T07:50:51.835Z,42.20
2018-06-30T07:54:55.808Z,42.20
2018-06-30T07:58:59.513Z,41.10
2018-06-30T08:03:03.192Z,41.80
2018-06-30T08:07:07.828Z,40.70
2018-06-30T08:11:11.859Z,41.30
2018-06-30T08:15:15.795Z,40.80
2018-06-30T08:19:20.502Z,39.10
2018-06-30T08:23:24.735Z,38.60
2018-06-30T08:27:28.548Z,39.30
2018-06-30T08:31:32.618Z,40.30
2018-06-30T08:35:36.307Z,40.70
2018-06-30T08:39:40.011Z,36.90
2018-06-30T08:47:47.602Z,38.60
2018-06-30T08:51:51.374Z,39.60
2018-06-30T08:55:54.970Z,39.10
2018-06-30T08:59:58.706Z,38.00
2018-06-30T09:04:02.286Z,37.30
2018-06-30T09:12:12.487Z,37.00
2018-06-30T09:16:16.233Z,38.00
2018-06-30T09:20:19.899Z,37.00
2018-06-30T09:24:24.507Z,37.40
2018-06-30T09:28:28.104Z,39.70
2018-06-30T09:32:33.831Z,41.30
2018-06-30T09:36:38.021Z,41.20
2018-06-30T09:40:41.883Z,41.70
2018-06-30T09:44:47.583Z,41.60
2018-06-30T09:48:51.266Z,42.50
2018-06-30T09:52:56.318Z,41.90
2018-06-30T10:01:07.174Z,46.50
2018-06-30T10:05:14.363Z,43.80
2018-06-30T10:09:17.897Z,45.30
2018-06-30T10:13:21.526Z,44.40
2018-06-30T10:17:25.873Z,45.00
2018-06-30T10:21:30.290Z,44.00
2018-06-30T10:25:35.227Z,43.00
2018-06-30T10:29:39.242Z,42.60
2018-06-30T10:33:42.994Z,44.40
2018-06-30T10:37:46.726Z,46.20
2018-06-30T10:41:50.495Z,44.10
2018-06-30T10:45:57.767Z,44.50
2018-06-30T10:50:01.815Z,44.10
2018-06-30T10:54:05.594Z,44.20
2018-06-30T10:58:10.428Z,44.20
2018-06-30T11:02:13.994Z,45.30
2018-06-30T11:06:18.787Z,44.40
2018-06-30T11:10:23.548Z,43.60
2018-06-30T11:14:27.049Z,46.10
2018-06-30T11:18:32.658Z,46.00
2018-06-30T11:22:39.989Z,42.80
2018-06-30T11:26:43.613Z,44.70
2018-06-30T11:30:47.238Z,45.10
2018-06-30T11:34:50.922Z,43.30
2018-06-30T11:38:54.497Z,45.20
2018-06-30T11:42:58.221Z,43.10
2018-06-30T11:47:02.034Z,42.90
2018-06-30T11:51:05.997Z,43.20
2018-06-30T11:55:09.562Z,43.10
2018-06-30T11:59:15.319Z,42.80
2018-06-30T12:03:18.886Z,42.00
2018-06-30T12:07:22.446Z,41.50
2018-06-30T12:11:26.112Z,40.80
2018-06-30T12:15:29.903Z,43.30
2018-06-30T12:19:33.680Z,41.30
2018-06-30T12:23:37.544Z,40.20
2018-06-30T12:27:42.032Z,41.10
2018-06-30T12:31:45.598Z,42.40
2018-06-30T12:35:49.252Z,40.80
2018-06-30T12:39:52.839Z,42.10
2018-06-30T12:43:56.489Z,42.80
2018-06-30T12:48:00.190Z,39.60
2018-06-30T12:52:03.916Z,41.40
2018-06-30T12:56:07.567Z,41.90
2018-06-30T13:00:11.365Z,41.20
2018-06-30T13:04:14.908Z,44.80
2018-06-30T13:08:18.480Z,41.10
2018-06-30T13:12:25.675Z,46.80
2018-06-30T13:16:29.939Z,42.20
2018-06-30T13:20:33.563Z,45.10
2018-06-30T13:24:37.073Z,43.60
2018-06-30T13:28:40.678Z,42.50
2018-06-30T13:32:52.334Z,39.90
2018-06-30T13:36:55.911Z,41.90
2018-06-30T13:40:59.630Z,47.20
2018-06-30T13:45:03.517Z,42.60
2018-06-30T13:49:07.356Z,40.20
2018-06-30T13:53:10.949Z,40.50
2018-06-30T13:57:14.513Z,43.60
2018-06-30T14:01:21.363Z,39.10
2018-06-30T14:05:24.907Z,37.80
2018-06-30T14:09:28.484Z,40.40
2018-06-30T14:13:32.220Z,39.00
2018-06-30T14:17:35.824Z,43.20
2018-06-30T14:21:39.360Z,41.60
2018-06-30T14:25:42.987Z,43.10
2018-06-30T14:29:46.555Z,40.00
2018-06-30T14:33:50.634Z,37.70
2018-06-30T14:38:00.273Z,36.50
2018-06-30T14:42:04.290Z,36.30
2018-06-30T14:46:07.831Z,34.70
2018-06-30T14:50:11.425Z,39.30
2018-06-30T14:54:17.063Z,34.30
2018-06-30T14:58:21.969Z,39.30
2018-06-30T15:02:26.652Z,34.60
2018-06-30T15:06:30.803Z,32.80
2018-06-30T15:10:34.767Z,32.20
2018-06-30T15:18:41.601Z,34.90
2018-06-30T15:22:49.726Z,30.60
2018-06-30T15:26:53.258Z,30.80
2018-06-30T15:30:56.913Z,32.90
2018-06-30T15:35:02.387Z,37.20
2018-06-30T15:39:09.341Z,30.40
2018-06-30T15:43:12.806Z,30.80
2018-06-30T15:47:16.459Z,30.00
2018-06-30T15:55:23.459Z,30.90
2018-06-30T15:59:27.105Z,31.40
2018-06-30T16:03:31.336Z,33.90
2018-06-30T16:07:35.496Z,34.00
2018-06-30T16:11:39.075Z,27.40
2018-06-30T16:15:42.631Z,31.30
2018-06-30T16:19:46.476Z,33.70
2018-06-30T16:23:51.132Z,31.40
2018-06-30T16:27:54.736Z,31.00
2018-06-30T16:31:58.278Z,28.30
2018-06-30T16:36:02.131Z,31.50
2018-06-30T16:40:05.929Z,31.70
2018-06-30T16:44:09.498Z,32.10
2018-06-30T16:48:13.175Z,28.70
2018-06-30T16:52:18.199Z,29.40
2018-06-30T16:56:21.884Z,30.40
2018-06-30T17:00:25.926Z,29.00
2018-06-30T17:04:29.534Z,27.50
2018-06-30T17:08:33.493Z,32.30
2018-06-30T17:12:37.095Z,27.60
2018-06-30T17:16:40.692Z,28.30
2018-06-30T17:20:45.227Z,29.20
2018-06-30T17:24:48.824Z,34.50
2018-06-30T17:28:53.567Z,34.50
2018-06-30T17:32:57.091Z,29.30
2018-06-30T17:37:00.754Z,28.70
2018-06-30T17:41:04.446Z,30.20
2018-06-30T17:45:08.010Z,31.90
2018-06-30T17:49:11.587Z,34.00
2018-06-30T17:53:17.158Z,31.60
2018-06-30T17:57:20.858Z,31.70
2018-06-30T18:05:38.399Z,33.60
2018-06-30T18:09:41.987Z,30.30
2018-06-30T18:13:45.543Z,30.10
2018-06-30T18:17:49.276Z,31.10
2018-06-30T18:21:53.963Z,35.60
2018-06-30T18:25:57.483Z,33.50
2018-06-30T18:30:01.411Z,29.70
2018-06-30T18:34:05.375Z,31.20
2018-06-30T18:38:12.466Z,30.10
2018-06-30T18:42:15.994Z,32.30
2018-06-30T18:46:19.702Z,36.70
2018-06-30T18:50:23.219Z,31.30
2018-06-30T18:54:26.879Z,33.90
2018-06-30T18:58:30.687Z,35.90
2018-06-30T19:02:34.317Z,31.60
2018-06-30T19:06:38.083Z,32.10
2018-06-30T19:10:42.126Z,40.50
2018-06-30T19:14:45.667Z,32.40
2018-06-30T19:18:49.373Z,31.30
2018-06-30T19:22:52.883Z,32.00
2018-06-30T19:26:56.523Z,32.70
2018-06-30T19:35:03.855Z,32.00
2018-06-30T19:39:09.248Z,32.00
2018-06-30T19:43:12.782Z,34.10
2018-06-30T19:51:20.493Z,35.40
2018-06-30T19:55:24.039Z,33.60
2018-06-30T19:59:28.725Z,36.20
2018-06-30T20:03:32.481Z,32.30
2018-06-30T20:07:48.607Z,34.60
2018-06-30T20:11:52.118Z,32.40
2018-06-30T20:15:55.757Z,37.10
2018-06-30T20:24:03.059Z,33.70
2018-06-30T20:28:06.771Z,33.40
2018-06-30T20:32:10.386Z,35.90
2018-06-30T20:36:13.897Z,35.80
2018-06-30T20:40:17.534Z,34.00
2018-06-30T20:44:21.134Z,34.20
2018-06-30T20:48:25.068Z,37.50
2018-06-30T20:52:29.614Z,33.60
2018-06-30T20:56:34.391Z,34.70
2018-06-30T21:00:37.946Z,35.60
2018-06-30T21:04:41.742Z,36.80
2018-06-30T21:08:45.384Z,34.70
2018-06-30T21:12:49.025Z,34.90
2018-06-30T21:16:52.618Z,36.60
2018-06-30T21:20:56.255Z,35.00
2018-06-30T21:25:02.197Z,36.30
2018-06-30T21:29:06.417Z,35.90
2018-06-30T21:33:11.826Z,38.10
2018-06-30T21:37:15.746Z,34.00
2018-06-30T21:41:20.242Z,34.60
2018-06-30T21:45:25.754Z,38.90
2018-06-30T21:49:29.459Z,38.90
2018-06-30T21:53:33.437Z,35.80
2018-06-30T21:57:36.990Z,35.10
2018-06-30T22:01:41.176Z,35.70
2018-06-30T22:05:44.798Z,36.10
2018-06-30T22:09:48.794Z,35.10
2018-06-30T22:13:53.455Z,37.50
2018-06-30T22:17:57.194Z,38.40
2018-06-30T22:22:00.823Z,36.20
2018-06-30T22:26:05.530Z,36.40
2018-06-30T22:30:09.075Z,38.50
2018-06-30T22:34:12.773Z,40.00
2018-06-30T22:38:16.417Z,37.80
2018-06-30T22:42:20.013Z,37.90
2018-06-30T22:46:23.727Z,37.40
2018-06-30T22:50:27.295Z,38.10
2018-06-30T22:54:30.909Z,40.80
2018-06-30T22:58:34.699Z,37.80
2018-06-30T23:02:38.573Z,38.10
2018-06-30T23:06:42.150Z,38.20
2018-06-30T23:10:50.686Z,38.80
2018-06-30T23:14:54.256Z,39.30
2018-06-30T23:18:57.769Z,39.40
2018-06-30T23:23:09.340Z,44.00
2018-06-30T23:27:12.936Z,40.40
2018-06-30T23:31:16.859Z,42.80
2018-06-30T23:35:21.230Z,40.80
2018-06-30T23:39:24.777Z,39.80
2018-06-30T23:43:28.413Z,41.50
2018-06-30T23:47:32.045Z,41.90
2018-06-30T23:51:35.716Z,42.60
2018-06-30T23:55:39.360Z,41.10
2018-06-30T23:59:42.869Z,42.40
